Terminal Aerodrome Forecast
Issued by NWS Atlanta, GA

Home | Current Version | Previous Version | Text Only | Print | Product List | Glossary On
Versions: 1 2 3 4 5 6 7 8 9 10 11 12 13 14 15 16 17
000
FTUS42 KFFC 021730
TAFCSG
TAF
KCSG 021730Z 0218/0318 31004KT P6SM OVC025
      TEMPO 0218/0221 SCT015 BKN040
     FM030000 02003KT P6SM OVC020
     FM030600 08003KT 3SM BR OVC012
     FM030900 12003KT 3SM BR OVC008=

USA.gov is the U.S. government's official web portal to all federal, state and local government web resources and services.